createdAt,value
2018-08-12T00:00:53.397Z,1005.36
2018-08-12T00:01:54.023Z,1005.35
2018-08-12T00:02:53.396Z,1005.37
2018-08-12T00:03:53.399Z,1005.37
2018-08-12T00:04:53.399Z,1005.35
2018-08-12T00:05:53.399Z,1005.35
2018-08-12T00:06:53.397Z,1005.37
2018-08-12T00:07:53.400Z,1005.38
2018-08-12T00:08:53.399Z,1005.35
2018-08-12T00:09:53.399Z,1005.39
2018-08-12T00:10:53.398Z,1005.40
2018-08-12T00:11:53.435Z,1005.36
2018-08-12T00:12:53.400Z,1005.34
2018-08-12T00:13:53.399Z,1005.32
2018-08-12T00:14:53.400Z,1005.33
2018-08-12T00:15:53.401Z,1005.33
2018-08-12T00:16:53.399Z,1005.31
2018-08-12T00:17:53.398Z,1005.30
2018-08-12T00:18:53.899Z,1005.31
2018-08-12T00:19:53.400Z,1005.28
2018-08-12T00:20:53.397Z,1005.27
2018-08-12T00:21:53.497Z,1005.28
2018-08-12T00:22:53.398Z,1005.25
2018-08-12T00:23:53.399Z,1005.27
2018-08-12T00:24:53.400Z,1005.29
2018-08-12T00:25:53.414Z,1005.25
2018-08-12T00:26:53.400Z,1005.27
2018-08-12T00:27:53.400Z,1005.25
2018-08-12T00:28:53.429Z,1005.26
2018-08-12T00:29:53.400Z,1005.19
2018-08-12T00:30:53.401Z,1005.18
2018-08-12T00:31:53.403Z,1005.20
2018-08-12T00:32:53.402Z,1005.18
2018-08-12T00:33:53.400Z,1005.18
2018-08-12T00:34:53.409Z,1005.19
2018-08-12T00:35:53.400Z,1005.17
2018-08-12T00:36:53.399Z,1005.12
2018-08-12T00:37:53.411Z,1005.16
2018-08-12T00:38:53.488Z,1005.15
2018-08-12T00:39:53.406Z,1005.13
2018-08-12T00:40:53.400Z,1005.13
2018-08-12T00:41:53.401Z,1005.13
2018-08-12T00:42:53.401Z,1005.13
2018-08-12T00:43:53.405Z,1005.14
2018-08-12T00:44:53.399Z,1005.14
2018-08-12T00:45:53.403Z,1005.12
2018-08-12T00:46:53.402Z,1005.18
2018-08-12T00:47:53.401Z,1005.13
2018-08-12T00:48:53.400Z,1005.13
2018-08-12T00:49:53.400Z,1005.09
2018-08-12T00:50:53.439Z,1005.07
2018-08-12T00:51:53.402Z,1005.08
2018-08-12T00:52:53.400Z,1005.05
2018-08-12T00:53:53.400Z,1005.06
2018-08-12T00:54:53.404Z,1005.07
2018-08-12T00:55:53.403Z,1005.03
2018-08-12T00:56:53.400Z,1005.04
2018-08-12T00:57:53.409Z,1005.05
2018-08-12T00:58:53.409Z,1005.03
2018-08-12T00:59:53.399Z,1005.03
2018-08-12T01:00:53.398Z,1005.02
2018-08-12T01:01:53.399Z,1005.02
2018-08-12T01:02:53.399Z,1004.97
2018-08-12T01:03:53.400Z,1004.97
2018-08-12T01:04:53.397Z,1005.00
2018-08-12T01:05:53.400Z,1004.97
2018-08-12T01:06:53.399Z,1005.01
2018-08-12T01:07:53.403Z,1004.99
2018-08-12T01:08:53.404Z,1004.98
2018-08-12T01:09:53.400Z,1004.98
2018-08-12T01:10:53.400Z,1004.99
2018-08-12T01:11:53.412Z,1005.00
2018-08-12T01:12:53.397Z,1005.05
2018-08-12T01:13:53.395Z,1005.03
2018-08-12T01:14:53.399Z,1005.04
2018-08-12T01:15:53.396Z,1005.02
2018-08-12T01:16:53.396Z,1004.98
2018-08-12T01:17:53.395Z,1004.99
2018-08-12T01:18:53.395Z,1004.98
2018-08-12T01:19:53.396Z,1004.99
2018-08-12T01:20:53.398Z,1004.96
2018-08-12T01:21:53.393Z,1004.96
2018-08-12T01:22:53.394Z,1004.97
2018-08-12T01:23:53.395Z,1004.96
2018-08-12T01:24:53.395Z,1004.98
2018-08-12T01:25:53.482Z,1004.95
2018-08-12T01:26:53.413Z,1004.95
2018-08-12T01:27:53.392Z,1004.95
2018-08-12T01:28:53.394Z,1004.97
2018-08-12T01:29:53.390Z,1004.98
2018-08-12T01:30:53.407Z,1004.98
2018-08-12T01:31:53.390Z,1004.98
2018-08-12T01:32:53.389Z,1005.00
2018-08-12T01:33:53.393Z,1004.98
2018-08-12T01:34:53.391Z,1005.01
2018-08-12T01:35:53.443Z,1004.97
2018-08-12T01:36:53.388Z,1004.97
2018-08-12T01:37:53.388Z,1005.00
2018-08-12T01:38:53.387Z,1005.02
2018-08-12T01:39:53.388Z,1004.96
2018-08-12T01:40:53.404Z,1004.99
2018-08-12T01:41:53.386Z,1004.99
2018-08-12T01:42:53.386Z,1004.99
2018-08-12T01:43:53.388Z,1004.97
2018-08-12T01:44:53.392Z,1004.96
2018-08-12T01:45:53.386Z,1004.94
2018-08-12T01:46:53.388Z,1004.96
2018-08-12T01:47:53.384Z,1004.96
2018-08-12T01:48:53.383Z,1004.97
2018-08-12T01:49:53.383Z,1004.97
2018-08-12T01:50:53.383Z,1004.95
2018-08-12T01:51:53.384Z,1004.94
2018-08-12T01:52:53.381Z,1004.94
2018-08-12T01:53:53.384Z,1004.91
2018-08-12T01:54:53.380Z,1004.91
2018-08-12T01:55:53.380Z,1004.89
2018-08-12T01:56:53.380Z,1004.89
2018-08-12T01:57:53.381Z,1004.94
2018-08-12T01:58:53.384Z,1004.92
2018-08-12T01:59:53.391Z,1004.86
2018-08-12T02:00:53.376Z,1004.90
2018-08-12T02:01:53.415Z,1004.85
2018-08-12T02:02:53.376Z,1004.86
2018-08-12T02:03:53.376Z,1004.85
2018-08-12T02:04:53.701Z,1004.85
2018-08-12T02:05:53.373Z,1004.83
2018-08-12T02:06:53.374Z,1004.85
2018-08-12T02:07:53.373Z,1004.86
2018-08-12T02:08:53.372Z,1004.83
2018-08-12T02:09:53.371Z,1004.82
2018-08-12T02:10:53.371Z,1004.78
2018-08-12T02:11:53.370Z,1004.78
2018-08-12T02:12:53.369Z,1004.79
2018-08-12T02:13:53.369Z,1004.79
2018-08-12T02:14:53.369Z,1004.76
2018-08-12T02:15:53.371Z,1004.75
2018-08-12T02:16:53.369Z,1004.73
2018-08-12T02:17:53.366Z,1004.76
2018-08-12T02:18:53.366Z,1004.75
2018-08-12T02:19:53.368Z,1004.70
2018-08-12T02:20:53.363Z,1004.73
2018-08-12T02:21:53.364Z,1004.72
2018-08-12T02:22:53.363Z,1004.76
2018-08-12T02:23:53.364Z,1004.74
2018-08-12T02:24:53.364Z,1004.75
2018-08-12T02:25:53.361Z,1004.77
2018-08-12T02:26:53.360Z,1004.78
2018-08-12T02:27:53.359Z,1004.77
2018-08-12T02:28:53.358Z,1004.78
2018-08-12T02:29:53.358Z,1004.75
2018-08-12T02:30:53.362Z,1004.72
2018-08-12T02:31:53.359Z,1004.75
2018-08-12T02:32:53.355Z,1004.75
2018-08-12T02:33:53.358Z,1004.73
2018-08-12T02:34:53.356Z,1004.78
2018-08-12T02:35:54.111Z,1004.75
2018-08-12T02:36:53.352Z,1004.76
2018-08-12T02:37:53.353Z,1004.72
2018-08-12T02:38:53.361Z,1004.72
2018-08-12T02:39:53.351Z,1004.74
2018-08-12T02:40:53.348Z,1004.75
2018-08-12T02:41:53.357Z,1004.72
2018-08-12T02:42:53.347Z,1004.70
2018-08-12T02:43:53.348Z,1004.74
2018-08-12T02:44:53.345Z,1004.73
2018-08-12T02:45:53.345Z,1004.71
2018-08-12T02:46:53.345Z,1004.74
2018-08-12T02:47:53.344Z,1004.71
2018-08-12T02:48:53.343Z,1004.72
2018-08-12T02:49:53.342Z,1004.71
2018-08-12T02:50:53.343Z,1004.65
2018-08-12T02:51:53.340Z,1004.67
2018-08-12T02:52:53.357Z,1004.70
2018-08-12T02:53:53.339Z,1004.66
2018-08-12T02:54:53.338Z,1004.63
2018-08-12T02:55:53.384Z,1004.64
2018-08-12T02:56:53.338Z,1004.66
2018-08-12T02:57:53.336Z,1004.66
2018-08-12T02:58:53.337Z,1004.60
2018-08-12T02:59:53.333Z,1004.63
2018-08-12T03:00:53.334Z,1004.60
2018-08-12T03:01:53.332Z,1004.61
2018-08-12T03:02:53.331Z,1004.57
2018-08-12T03:03:53.330Z,1004.58
2018-08-12T03:04:53.329Z,1004.55
2018-08-12T03:05:53.329Z,1004.58
2018-08-12T03:06:53.328Z,1004.57
2018-08-12T03:07:53.335Z,1004.59
2018-08-12T03:08:53.325Z,1004.56
2018-08-12T03:09:53.334Z,1004.53
2018-08-12T03:10:53.350Z,1004.56
2018-08-12T03:11:53.326Z,1004.52
2018-08-12T03:12:53.321Z,1004.52
2018-08-12T03:13:53.320Z,1004.51
2018-08-12T03:14:53.321Z,1004.46
2018-08-12T03:15:53.321Z,1004.48
2018-08-12T03:16:53.327Z,1004.41
2018-08-12T03:17:53.317Z,1004.41
2018-08-12T03:18:53.316Z,1004.42
2018-08-12T03:19:53.314Z,1004.38
2018-08-12T03:20:53.313Z,1004.43
2018-08-12T03:21:53.316Z,1004.41
2018-08-12T03:22:53.315Z,1004.40
2018-08-12T03:23:53.312Z,1004.39
2018-08-12T03:24:53.314Z,1004.39
2018-08-12T03:25:53.309Z,1004.39
2018-08-12T03:26:53.307Z,1004.39
2018-08-12T03:27:53.309Z,1004.36
2018-08-12T03:28:53.304Z,1004.35
2018-08-12T03:29:53.310Z,1004.37
2018-08-12T03:30:53.304Z,1004.40
2018-08-12T03:31:53.306Z,1004.37
2018-08-12T03:32:53.302Z,1004.32
2018-08-12T03:33:53.299Z,1004.34
2018-08-12T03:34:53.304Z,1004.37
2018-08-12T03:35:53.318Z,1004.35
2018-08-12T03:36:53.296Z,1004.35
2018-08-12T03:37:53.297Z,1004.32
2018-08-12T03:38:53.294Z,1004.33
2018-08-12T03:39:53.313Z,1004.34
2018-08-12T03:40:53.295Z,1004.32
2018-08-12T03:41:53.293Z,1004.34
2018-08-12T03:42:53.290Z,1004.32
2018-08-12T03:43:53.290Z,1004.29
2018-08-12T03:44:53.288Z,1004.28
2018-08-12T03:45:53.287Z,1004.30
2018-08-12T03:46:53.286Z,1004.25
2018-08-12T03:47:53.290Z,1004.24
2018-08-12T03:48:53.322Z,1004.23
2018-08-12T03:49:53.282Z,1004.21
2018-08-12T03:50:53.283Z,1004.25
2018-08-12T03:51:53.281Z,1004.21
2018-08-12T03:52:53.279Z,1004.19
2018-08-12T03:53:53.280Z,1004.23
2018-08-12T03:54:53.277Z,1004.23
2018-08-12T03:55:53.278Z,1004.21
2018-08-12T03:56:53.275Z,1004.19
2018-08-12T03:57:53.277Z,1004.20
2018-08-12T03:58:53.273Z,1004.20
2018-08-12T03:59:53.272Z,1004.18
2018-08-12T04:00:53.290Z,1004.17
2018-08-12T04:01:53.269Z,1004.18
2018-08-12T04:02:53.271Z,1004.17
2018-08-12T04:03:53.272Z,1004.18
2018-08-12T04:04:53.265Z,1004.15
2018-08-12T04:05:53.265Z,1004.14
2018-08-12T04:06:53.264Z,1004.17
2018-08-12T04:07:53.344Z,1004.16
2018-08-12T04:08:53.261Z,1004.12
2018-08-12T04:09:53.259Z,1004.14
2018-08-12T04:10:53.262Z,1004.13
2018-08-12T04:11:53.257Z,1004.08
2018-08-12T04:12:53.255Z,1004.11
2018-08-12T04:13:53.255Z,1004.10
2018-08-12T04:14:53.254Z,1004.10
2018-08-12T04:15:53.253Z,1004.06
2018-08-12T04:16:53.249Z,1004.05
2018-08-12T04:17:53.250Z,1004.07
2018-08-12T04:18:53.279Z,1004.05
2018-08-12T04:19:53.247Z,1004.06
2018-08-12T04:20:53.244Z,1004.05
2018-08-12T04:21:53.244Z,1004.04
2018-08-12T04:22:53.243Z,1004.06
2018-08-12T04:23:53.243Z,1004.04
2018-08-12T04:24:53.241Z,1004.06
2018-08-12T04:25:53.239Z,1004.01
2018-08-12T04:26:53.237Z,1004.02
2018-08-12T04:27:53.236Z,1004.01
2018-08-12T04:28:53.238Z,1004.02
2018-08-12T04:29:53.264Z,1004.00
2018-08-12T04:30:53.233Z,1004.01
2018-08-12T04:31:53.234Z,1004.00
2018-08-12T04:32:53.229Z,1003.99
2018-08-12T04:33:53.232Z,1003.99
2018-08-12T04:34:53.230Z,1003.99
2018-08-12T04:35:53.227Z,1003.99
2018-08-12T04:36:53.224Z,1004.00
2018-08-12T04:37:53.236Z,1003.99
2018-08-12T04:38:53.765Z,1004.03
2018-08-12T04:39:53.222Z,1004.02
2018-08-12T04:40:53.221Z,1004.00
2018-08-12T04:41:53.219Z,1004.01
2018-08-12T04:42:53.217Z,1004.01
2018-08-12T04:43:53.215Z,1004.02
2018-08-12T04:44:53.219Z,1003.97
2018-08-12T04:45:53.238Z,1003.98
2018-08-12T04:46:53.216Z,1003.98
2018-08-12T04:47:53.212Z,1003.96
2018-08-12T04:48:53.209Z,1003.96
2018-08-12T04:49:53.209Z,1003.97
2018-08-12T04:50:53.210Z,1003.97
2018-08-12T04:51:53.205Z,1003.95
2018-08-12T04:52:53.205Z,1003.94
2018-08-12T04:53:53.203Z,1003.96
2018-08-12T04:54:53.204Z,1003.95
2018-08-12T04:55:53.202Z,1003.93
2018-08-12T04:56:53.200Z,1003.95
2018-08-12T04:57:53.202Z,1003.93
2018-08-12T04:58:53.200Z,1003.93
2018-08-12T04:59:53.200Z,1003.96
2018-08-12T05:00:53.198Z,1003.93
2018-08-12T05:01:53.198Z,1003.92
2018-08-12T05:02:53.198Z,1003.94
2018-08-12T05:03:53.201Z,1003.91
2018-08-12T05:04:53.195Z,1003.90
2018-08-12T05:05:53.194Z,1003.87
2018-08-12T05:06:53.201Z,1003.86
2018-08-12T05:07:53.195Z,1003.90
2018-08-12T05:08:53.195Z,1003.87
2018-08-12T05:09:54.151Z,1003.92
2018-08-12T05:10:53.195Z,1003.89
2018-08-12T05:11:53.194Z,1003.88
2018-08-12T05:12:53.190Z,1003.90
2018-08-12T05:13:53.191Z,1003.87
2018-08-12T05:14:53.192Z,1003.86
2018-08-12T05:15:53.189Z,1003.85
2018-08-12T05:16:53.189Z,1003.85
2018-08-12T05:17:53.191Z,1003.84
2018-08-12T05:18:53.189Z,1003.79
2018-08-12T05:19:53.189Z,1003.84
2018-08-12T05:20:53.188Z,1003.80
2018-08-12T05:21:53.189Z,1003.82
2018-08-12T05:22:53.188Z,1003.85
2018-08-12T05:23:53.187Z,1003.83
2018-08-12T05:24:53.188Z,1003.80
2018-08-12T05:25:53.186Z,1003.82
2018-08-12T05:26:53.184Z,1003.77
2018-08-12T05:27:53.184Z,1003.75
2018-08-12T05:28:53.184Z,1003.75
2018-08-12T05:29:53.187Z,1003.74
2018-08-12T05:30:53.186Z,1003.73
2018-08-12T05:31:53.185Z,1003.74
2018-08-12T05:32:53.182Z,1003.73
2018-08-12T05:33:53.186Z,1003.70
2018-08-12T05:34:53.185Z,1003.68
2018-08-12T05:35:53.185Z,1003.64
2018-08-12T05:36:53.185Z,1003.65
2018-08-12T05:37:53.183Z,1003.71
2018-08-12T05:38:53.183Z,1003.67
2018-08-12T05:39:53.183Z,1003.66
2018-08-12T05:40:53.188Z,1003.68
2018-08-12T05:41:53.185Z,1003.66
2018-08-12T05:42:53.186Z,1003.68
2018-08-12T05:43:53.188Z,1003.63
2018-08-12T05:44:53.192Z,1003.62
2018-08-12T05:45:53.188Z,1003.60
2018-08-12T05:46:53.192Z,1003.59
2018-08-12T05:47:53.192Z,1003.57
2018-08-12T05:48:53.193Z,1003.58
2018-08-12T05:49:53.192Z,1003.56
2018-08-12T05:50:53.199Z,1003.57
2018-08-12T05:51:53.198Z,1003.59
2018-08-12T05:52:53.195Z,1003.57
2018-08-12T05:53:53.197Z,1003.61
2018-08-12T05:54:53.201Z,1003.63
2018-08-12T05:55:53.200Z,1003.60
2018-08-12T05:56:53.203Z,1003.57
2018-08-12T05:57:53.204Z,1003.57
2018-08-12T05:58:53.206Z,1003.56
2018-08-12T05:59:53.204Z,1003.53
2018-08-12T06:00:53.206Z,1003.53
2018-08-12T06:01:53.206Z,1003.51
2018-08-12T06:02:53.278Z,1003.47
2018-08-12T06:03:53.208Z,1003.44
2018-08-12T06:04:53.209Z,1003.42
2018-08-12T06:05:53.210Z,1003.44
2018-08-12T06:06:53.211Z,1003.47
2018-08-12T06:07:53.216Z,1003.43
2018-08-12T06:08:53.234Z,1003.39
2018-08-12T06:09:53.213Z,1003.38
2018-08-12T06:10:53.214Z,1003.38
2018-08-12T06:11:53.215Z,1003.33
2018-08-12T06:12:53.217Z,1003.31
2018-08-12T06:13:53.217Z,1003.33
2018-08-12T06:14:53.219Z,1003.31
2018-08-12T06:15:53.221Z,1003.29
2018-08-12T06:16:53.219Z,1003.30
2018-08-12T06:17:53.219Z,1003.30
2018-08-12T06:18:53.221Z,1003.27
2018-08-12T06:19:53.222Z,1003.27
2018-08-12T06:20:53.222Z,1003.28
2018-08-12T06:21:53.226Z,1003.26
2018-08-12T06:22:53.225Z,1003.30
2018-08-12T06:23:53.224Z,1003.25
2018-08-12T06:24:53.227Z,1003.23
2018-08-12T06:25:53.226Z,1003.19
2018-08-12T06:26:53.227Z,1003.19
2018-08-12T06:27:53.227Z,1003.23
2018-08-12T06:28:53.230Z,1003.17
2018-08-12T06:29:53.228Z,1003.17
2018-08-12T06:30:53.229Z,1003.17
2018-08-12T06:31:53.238Z,1003.15
2018-08-12T06:32:53.233Z,1003.17
2018-08-12T06:33:53.231Z,1003.17
2018-08-12T06:34:53.232Z,1003.16
2018-08-12T06:35:53.233Z,1003.11
2018-08-12T06:36:53.233Z,1003.11
2018-08-12T06:37:53.233Z,1003.12
2018-08-12T06:38:53.245Z,1003.10
2018-08-12T06:39:53.252Z,1003.10
2018-08-12T06:40:53.261Z,1003.11
2018-08-12T06:41:53.360Z,1003.12
2018-08-12T06:42:53.237Z,1003.09
2018-08-12T06:43:53.238Z,1003.11
2018-08-12T06:44:53.238Z,1003.07
2018-08-12T06:45:53.240Z,1003.10
2018-08-12T06:46:53.239Z,1003.07
2018-08-12T06:47:53.240Z,1003.05
2018-08-12T06:48:53.256Z,1003.06
2018-08-12T06:49:53.241Z,1003.08
2018-08-12T06:50:53.243Z,1003.09
2018-08-12T06:51:53.272Z,1003.04
2018-08-12T06:52:53.243Z,1003.05
2018-08-12T06:53:53.243Z,1003.05
2018-08-12T06:54:53.244Z,1003.02
2018-08-12T06:55:53.245Z,1003.03
2018-08-12T06:56:53.248Z,1003.00
2018-08-12T06:57:53.245Z,1003.01
2018-08-12T06:58:53.246Z,1002.99
2018-08-12T06:59:53.249Z,1003.01
2018-08-12T07:00:53.248Z,1002.98
2018-08-12T07:01:53.248Z,1003.01
2018-08-12T07:02:53.251Z,1002.96
2018-08-12T07:03:53.249Z,1002.99
2018-08-12T07:04:53.252Z,1003.00
2018-08-12T07:05:53.258Z,1002.97
2018-08-12T07:06:53.252Z,1002.95
2018-08-12T07:07:53.251Z,1002.96
2018-08-12T07:08:53.252Z,1002.98
2018-08-12T07:09:53.254Z,1002.95
2018-08-12T07:10:53.253Z,1002.91
2018-08-12T07:11:53.256Z,1002.87
2018-08-12T07:12:53.780Z,1002.86
2018-08-12T07:13:53.255Z,1002.88
2018-08-12T07:14:53.256Z,1002.88
2018-08-12T07:15:53.258Z,1002.86
2018-08-12T07:16:53.255Z,1002.88
2018-08-12T07:17:53.257Z,1002.84
2018-08-12T07:18:53.258Z,1002.91
2018-08-12T07:19:53.261Z,1002.90
2018-08-12T07:20:53.257Z,1002.90
2018-08-12T07:21:53.259Z,1002.85
2018-08-12T07:22:53.260Z,1002.86
2018-08-12T07:23:53.260Z,1002.85
2018-08-12T07:24:53.261Z,1002.80
2018-08-12T07:25:53.262Z,1002.83
2018-08-12T07:26:53.262Z,1002.80
2018-08-12T07:27:53.266Z,1002.83
2018-08-12T07:28:53.270Z,1002.82
2018-08-12T07:29:53.269Z,1002.82
2018-08-12T07:30:53.267Z,1002.81
2018-08-12T07:31:53.267Z,1002.77
2018-08-12T07:32:53.302Z,1002.78
2018-08-12T07:33:53.268Z,1002.78
2018-08-12T07:34:53.270Z,1002.78
2018-08-12T07:35:53.274Z,1002.78
2018-08-12T07:36:53.274Z,1002.79
2018-08-12T07:37:53.271Z,1002.79
2018-08-12T07:38:53.281Z,1002.77
2018-08-12T07:39:53.274Z,1002.77
2018-08-12T07:40:53.273Z,1002.73
2018-08-12T07:41:53.276Z,1002.73
2018-08-12T07:42:53.275Z,1002.70
2018-08-12T07:43:54.164Z,1002.68
2018-08-12T07:44:53.277Z,1002.70
2018-08-12T07:45:53.286Z,1002.68
2018-08-12T07:46:53.282Z,1002.71
2018-08-12T07:47:53.280Z,1002.65
2018-08-12T07:48:53.365Z,1002.67
2018-08-12T07:49:53.283Z,1002.64
2018-08-12T07:50:53.283Z,1002.61
2018-08-12T07:51:53.286Z,1002.64
2018-08-12T07:52:53.289Z,1002.64
2018-08-12T07:53:53.290Z,1002.61
2018-08-12T07:54:53.289Z,1002.64
2018-08-12T07:55:53.348Z,1002.63
2018-08-12T07:56:53.292Z,1002.59
2018-08-12T07:57:53.290Z,1002.52
2018-08-12T07:58:53.291Z,1002.54
2018-08-12T07:59:53.293Z,1002.51
2018-08-12T08:00:53.293Z,1002.48
2018-08-12T08:01:53.296Z,1002.50
2018-08-12T08:02:53.298Z,1002.47
2018-08-12T08:03:53.301Z,1002.49
2018-08-12T08:04:53.300Z,1002.48
2018-08-12T08:05:53.300Z,1002.45
2018-08-12T08:06:53.304Z,1002.46
2018-08-12T08:07:53.306Z,1002.45
2018-08-12T08:08:53.304Z,1002.42
2018-08-12T08:09:53.305Z,1002.41
2018-08-12T08:10:53.307Z,1002.41
2018-08-12T08:11:53.310Z,1002.39
2018-08-12T08:12:53.309Z,1002.45
2018-08-12T08:13:53.312Z,1002.42
2018-08-12T08:14:53.314Z,1002.42
2018-08-12T08:15:53.318Z,1002.42
2018-08-12T08:16:53.316Z,1002.41
2018-08-12T08:17:53.318Z,1002.36
2018-08-12T08:18:53.319Z,1002.37
2018-08-12T08:19:53.347Z,1002.38
2018-08-12T08:20:53.322Z,1002.39
2018-08-12T08:21:53.323Z,1002.40
2018-08-12T08:22:53.331Z,1002.34
2018-08-12T08:23:53.328Z,1002.33
2018-08-12T08:24:53.329Z,1002.32
2018-08-12T08:25:53.409Z,1002.26
2018-08-12T08:26:53.332Z,1002.24
2018-08-12T08:27:53.334Z,1002.28
2018-08-12T08:28:53.336Z,1002.21
2018-08-12T08:29:53.338Z,1002.21
2018-08-12T08:30:53.339Z,1002.24
2018-08-12T08:31:53.546Z,1002.22
2018-08-12T08:32:53.343Z,1002.19
2018-08-12T08:33:53.346Z,1002.17
2018-08-12T08:34:53.348Z,1002.17
2018-08-12T08:35:53.351Z,1002.15
2018-08-12T08:36:53.354Z,1002.09
2018-08-12T08:37:53.358Z,1002.12
2018-08-12T08:38:53.360Z,1002.11
2018-08-12T08:39:53.361Z,1002.08
2018-08-12T08:40:53.361Z,1002.08
2018-08-12T08:41:53.362Z,1002.10
2018-08-12T08:42:53.366Z,1002.05
2018-08-12T08:43:53.429Z,1002.06
2018-08-12T08:44:53.372Z,1002.04
2018-08-12T08:45:53.372Z,1002.02
2018-08-12T08:46:53.379Z,1002.03
2018-08-12T08:47:53.380Z,1001.99
2018-08-12T08:48:53.380Z,1001.99
2018-08-12T08:49:53.441Z,1001.98
2018-08-12T08:50:53.386Z,1001.95
2018-08-12T08:51:53.392Z,1001.96
2018-08-12T08:52:53.391Z,1001.95
2018-08-12T08:53:53.395Z,1001.94
2018-08-12T08:54:53.397Z,1001.99
2018-08-12T08:55:53.455Z,1001.96
2018-08-12T08:56:53.401Z,1001.98
2018-08-12T08:57:53.411Z,1001.95
2018-08-12T08:58:53.409Z,1001.93
2018-08-12T08:59:53.416Z,1001.96
2018-08-12T09:00:53.416Z,1001.88
2018-08-12T09:01:53.417Z,1001.92
2018-08-12T09:02:53.424Z,1001.90
2018-08-12T09:03:53.425Z,1001.90
2018-08-12T09:04:53.428Z,1001.95
2018-08-12T09:05:53.434Z,1001.93
2018-08-12T09:06:53.440Z,1001.90
2018-08-12T09:07:53.501Z,1001.92
2018-08-12T09:08:53.606Z,1001.89
2018-08-12T09:09:53.453Z,1001.87
2018-08-12T09:10:53.455Z,1001.86
2018-08-12T09:11:53.461Z,1001.82
2018-08-12T09:12:53.466Z,1001.80
2018-08-12T09:13:53.472Z,1001.81
2018-08-12T09:14:53.477Z,1001.78
2018-08-12T09:15:53.484Z,1001.76
2018-08-12T09:16:53.489Z,1001.76
2018-08-12T09:17:53.494Z,1001.80
2018-08-12T09:18:53.503Z,1001.78
2018-08-12T09:19:53.509Z,1001.77
2018-08-12T09:20:53.528Z,1001.78
2018-08-12T09:21:53.523Z,1001.77
2018-08-12T09:22:53.528Z,1001.80
2018-08-12T09:23:53.544Z,1001.80
2018-08-12T09:24:53.543Z,1001.77
2018-08-12T09:25:53.548Z,1001.76
2018-08-12T09:26:53.556Z,1001.74
2018-08-12T09:27:53.568Z,1001.75
2018-08-12T09:28:53.581Z,1001.73
2018-08-12T09:29:53.585Z,1001.68
2018-08-12T09:30:53.587Z,1001.65
2018-08-12T09:31:53.593Z,1001.70
2018-08-12T09:32:53.599Z,1001.68
2018-08-12T09:33:53.608Z,1001.64
2018-08-12T09:34:53.637Z,1001.62
2018-08-12T09:35:53.621Z,1001.62
2018-08-12T09:36:53.628Z,1001.59
2018-08-12T09:37:53.634Z,1001.65
2018-08-12T09:38:53.642Z,1001.62
2018-08-12T09:39:53.648Z,1001.66
2018-08-12T09:40:53.655Z,1001.62
2018-08-12T09:41:53.661Z,1001.60
2018-08-12T09:42:53.669Z,1001.58
2018-08-12T09:43:53.675Z,1001.58
2018-08-12T09:44:53.679Z,1001.59
2018-08-12T09:45:55.607Z,1001.57
2018-08-12T09:46:53.770Z,1001.56
2018-08-12T09:47:53.698Z,1001.57
2018-08-12T09:48:53.704Z,1001.57
2018-08-12T09:49:53.710Z,1001.57
2018-08-12T09:50:53.714Z,1001.53
2018-08-12T09:51:53.800Z,1001.53
2018-08-12T09:52:53.725Z,1001.47
2018-08-12T09:53:53.738Z,1001.57
2018-08-12T09:54:53.737Z,1001.56
2018-08-12T09:55:53.743Z,1001.49
2018-08-12T09:56:53.746Z,1001.54
2018-08-12T09:57:53.752Z,1001.53
2018-08-12T09:58:53.760Z,1001.53
2018-08-12T09:59:53.774Z,1001.53
2018-08-12T10:00:53.778Z,1001.54
2018-08-12T10:01:53.774Z,1001.48
2018-08-12T10:02:53.780Z,1001.49
2018-08-12T10:03:53.785Z,1001.56
2018-08-12T10:04:53.789Z,1001.50
2018-08-12T10:05:53.796Z,1001.44
2018-08-12T10:06:53.799Z,1001.42
2018-08-12T10:07:53.806Z,1001.45
2018-08-12T10:08:53.809Z,1001.43
2018-08-12T10:09:53.820Z,1001.37
2018-08-12T10:10:53.824Z,1001.31
2018-08-12T10:11:53.825Z,1001.32
2018-08-12T10:12:53.832Z,1001.25
2018-08-12T10:13:53.867Z,1001.26
2018-08-12T10:14:53.839Z,1001.18
2018-08-12T10:15:53.845Z,1001.19
2018-08-12T10:16:53.849Z,1001.18
2018-08-12T10:17:54.171Z,1001.15
2018-08-12T10:18:53.859Z,1001.12
2018-08-12T10:19:53.864Z,1001.11
2018-08-12T10:20:53.867Z,1001.13
2018-08-12T10:21:53.874Z,1001.10
2018-08-12T10:22:53.889Z,1001.11
2018-08-12T10:23:53.882Z,1001.08
2018-08-12T10:24:53.887Z,1001.06
2018-08-12T10:25:53.894Z,1001.08
2018-08-12T10:26:53.905Z,1001.05
2018-08-12T10:27:53.903Z,1000.99
2018-08-12T10:28:53.925Z,1000.98
2018-08-12T10:29:53.912Z,1001.02
2018-08-12T10:30:53.922Z,1000.95
2018-08-12T10:31:53.937Z,1000.93
2018-08-12T10:32:53.927Z,1000.88
2018-08-12T10:33:53.928Z,1000.85
2018-08-12T10:34:53.934Z,1000.84
2018-08-12T10:35:53.939Z,1000.83
2018-08-12T10:36:53.942Z,1000.76
2018-08-12T10:37:53.947Z,1000.78
2018-08-12T10:38:53.952Z,1000.80
2018-08-12T10:39:53.958Z,1000.78
2018-08-12T10:40:53.963Z,1000.75
2018-08-12T10:41:53.970Z,1000.74
2018-08-12T10:42:53.977Z,1000.75
2018-08-12T10:43:54.032Z,1000.75
2018-08-12T10:44:53.987Z,1000.73
2018-08-12T10:45:53.994Z,1000.71
2018-08-12T10:46:54.003Z,1000.68
2018-08-12T10:47:54.009Z,1000.62
2018-08-12T10:48:54.615Z,1000.68
2018-08-12T10:49:54.025Z,1000.65
2018-08-12T10:50:54.084Z,1000.61
2018-08-12T10:51:54.046Z,1000.59
2018-08-12T10:52:54.054Z,1000.56
2018-08-12T10:53:54.064Z,1000.54
2018-08-12T10:54:54.075Z,1000.57
2018-08-12T10:55:54.086Z,1000.54
2018-08-12T10:56:54.097Z,1000.55
2018-08-12T10:57:54.113Z,1000.56
2018-08-12T10:58:54.121Z,1000.56
2018-08-12T10:59:54.133Z,1000.57
2018-08-12T11:00:54.147Z,1000.58
2018-08-12T11:01:54.159Z,1000.50
2018-08-12T11:02:54.180Z,1000.50
2018-08-12T11:03:54.187Z,1000.53
2018-08-12T11:04:54.197Z,1000.45
2018-08-12T11:05:54.217Z,1000.40
2018-08-12T11:06:54.225Z,1000.35
2018-08-12T11:07:54.244Z,1000.37
2018-08-12T11:08:54.263Z,1000.31
2018-08-12T11:09:54.269Z,1000.29
2018-08-12T11:10:54.283Z,1000.26
2018-08-12T11:11:54.300Z,1000.27
2018-08-12T11:12:54.316Z,1000.25
2018-08-12T11:13:54.333Z,1000.25
2018-08-12T11:14:54.344Z,1000.24
2018-08-12T11:15:54.426Z,1000.26
2018-08-12T11:16:54.373Z,1000.22
2018-08-12T11:17:54.391Z,1000.24
2018-08-12T11:18:54.409Z,1000.24
2018-08-12T11:19:55.026Z,1000.28
2018-08-12T11:20:54.437Z,1000.23
2018-08-12T11:21:54.452Z,1000.20
2018-08-12T11:22:54.470Z,1000.22
2018-08-12T11:23:54.506Z,1000.17
2018-08-12T11:24:54.496Z,1000.18
2018-08-12T11:25:54.521Z,1000.20
2018-08-12T11:26:54.524Z,1000.20
2018-08-12T11:27:54.542Z,1000.18
2018-08-12T11:28:54.577Z,1000.20
2018-08-12T11:29:54.563Z,1000.12
2018-08-12T11:30:54.571Z,1000.07
2018-08-12T11:31:54.585Z,1000.04
2018-08-12T11:32:54.594Z,1000.08
2018-08-12T11:33:54.605Z,999.99
2018-08-12T11:34:54.725Z,1000.00
2018-08-12T11:35:54.630Z,1000.03
2018-08-12T11:36:54.634Z,999.98
2018-08-12T11:37:54.643Z,999.98
2018-08-12T11:38:54.903Z,1000.02
2018-08-12T11:39:54.686Z,1000.03
2018-08-12T11:40:54.670Z,1000.02
2018-08-12T11:41:54.692Z,999.97
2018-08-12T11:42:54.693Z,1000.02
2018-08-12T11:43:54.759Z,999.93
2018-08-12T11:44:54.705Z,999.95
2018-08-12T11:45:54.716Z,999.90
2018-08-12T11:46:54.725Z,999.87
2018-08-12T11:47:54.729Z,999.84
2018-08-12T11:48:54.737Z,999.76
2018-08-12T11:49:54.746Z,999.78
2018-08-12T11:50:55.479Z,999.81
2018-08-12T11:51:54.761Z,999.78
2018-08-12T11:52:54.767Z,999.77
2018-08-12T11:53:54.787Z,999.74
2018-08-12T11:54:54.783Z,999.75
2018-08-12T11:55:54.793Z,999.79
2018-08-12T11:56:54.843Z,999.74
2018-08-12T11:57:54.818Z,999.72
2018-08-12T11:58:54.813Z,999.71
2018-08-12T11:59:54.819Z,999.67
2018-08-12T12:00:54.825Z,999.63
2018-08-12T12:01:54.840Z,999.65
2018-08-12T12:02:54.845Z,999.65
2018-08-12T12:03:54.846Z,999.63
2018-08-12T12:04:54.860Z,999.61
2018-08-12T12:05:54.885Z,999.63
2018-08-12T12:06:54.875Z,999.61